Carson Sink, Nevada Weather observations

Data are for observation ending at time listed.
 Day   Time    Ave.   Ave.  Ave.  Vector   Max.   Stn.    Total    Solar   Ave.  
  of    of     Air    Rel.  Wind   Wind    Wind   Baro.  Precip.   Rad.    Soil  
Year   Day     Temp.  Hum.  Speed  Dir.    Gust   Pres.                    Temp. 
2015   (PST)    F      %     mph   deg.    mph     mb.     in.     W/m2     F   
------------------------------------------------------------------------------
  57    5:30   31.7    49    3.0   263      6.5   884.0    0.00       0     41.0
  57    5:40   32.3    49    3.3   348      6.1   884.3    0.00       0     41.0
  57    5:50   32.3    47    5.2   332      8.2   884.3    0.00       0     40.9
  57    6:00   31.8    48    1.9   356      6.0   884.2    0.00       0     40.9
  57    6:10   31.5    49    0.3   358      1.8   884.2    0.00       0     40.8
  57    6:20   32.3    47    1.7    66      2.9   884.3    0.00       0     40.8
  57    6:30   32.0    46    2.8     2      5.1   884.4    0.00       1     40.7
  57    6:40   31.2    48    2.8    25      4.5   884.3    0.00       5     40.6
  57    6:50   31.8    47    4.2   351      6.1   884.3    0.00       9     40.5
  57    7:00   32.0    44    3.6   341      6.1   884.5    0.00      35     40.4
  57    7:10   31.0    49    2.9   210      5.0   884.5    0.00      87     40.3
  57    7:20   32.9    48    3.9   168      9.2   884.9    0.00     120     40.3
  57    7:30   35.2    43    3.8   179      5.7   885.1    0.00     150     40.2
  57    7:40   36.7    42    3.4   202      6.3   885.3    0.00     180     40.1
  57    7:50   39.0    46    2.1   262      4.7   885.3    0.00     215     40.1
  57    8:00   40.6    46    3.4    39      6.5   885.6    0.00     249     40.0
  57    8:10   41.4    48    3.5    51      5.6   885.7    0.00     266     40.0
  57    8:20   42.6    49    8.3     6     13.0   885.7    0.00     363     40.0
  57    8:30   43.0    49   11.4   349     16.6   885.6    0.00     409     40.0
  57    8:40   43.6    48   10.8   346     14.4   885.6    0.00     450     40.0
  57    8:50   44.3    47   13.0   336     17.2   885.8    0.00     444     40.1
  57    9:00   44.5    46   14.7   337     18.2   885.8    0.00     461     40.2
  57    9:10   44.3    46   13.4   337     17.5   885.8    0.00     306     40.3
  57    9:20   44.2    47   13.9   342     17.1   885.8    0.00     299     40.5
  57    9:30   44.5    46   13.0   343     16.7   885.8    0.00     446     40.6
  57    9:40   44.8    45   11.8   344     15.2   885.8    0.00     288     40.8
  57    9:50   44.6    46   11.6   334     14.4   885.9    0.00     302     41.0
  57   10:00   45.6    45   11.6   335     14.7   885.9    0.00     759     41.2
  57   10:10   46.0    43   11.8   338     14.8   885.7    0.00     414     41.4
  57   10:20   45.2    45    8.2    25     13.7   885.6    0.00     134     41.7
  57   10:30   45.4    46    5.6    97     10.2   885.5    0.00     496     41.9
  57   10:40   47.0    43    3.6   108      9.3   885.5    0.00     859     42.1
  57   10:50   47.1    43    3.7   127      8.9   885.3    0.00     789     42.4
  57   11:00   47.8    42    2.2   205      5.1   885.3    0.00     507     42.6
  57   11:10   46.7    43    5.3   105     10.2   885.2    0.00     229     42.9
  57   11:20   46.9    42    1.7    30      4.9   885.2    0.00     448     43.2
  57   11:30   48.2    40    3.0   153      8.2   885.0    0.00     612     43.6
  57   11:40   48.9    39    4.4   246      8.0   884.8    0.00     769     43.9
  57   11:50   48.7    37    3.3   239      9.6   884.5    0.00     757     44.2
  57   12:00   49.6    35    3.2    10      6.7   884.3    0.00     842     44.6
  57   12:10   49.7    34    4.0   209     13.4   884.3    0.00     526     45.0
  57   12:20   49.1    35    5.3   324     11.6   884.1    0.00     370     45.3
  57   12:30   48.8    35    7.1   349     15.3   883.9    0.00     318     45.7
  57   12:40   48.8    36    8.3   332     13.6   883.7    0.00     289     46.1
  57   12:50   48.5    36    4.2   327      8.0   883.3    0.00     295     46.4
  57   13:00   48.8    35    4.2     1      8.8   883.1    0.00     395     46.8
  57   13:10   49.6    35    4.2   330      8.5   883.1    0.00     600     47.1
  57   13:20   50.5    34    4.1   294     11.9   883.1    0.00     597     47.4
  57   13:30   50.1    33    6.8   302     10.2   883.0    0.00     634     47.6
  57   13:40   49.5    33    4.1   265      7.7   882.8    0.00     242     47.9
  57   13:50   50.0    33    5.0   281     11.0   882.7    0.00     555     48.1
  57   14:00   50.9    32    7.2   279     13.4   882.6    0.00     644     48.4
  57   14:10   50.9    31    7.2   276     11.1   882.4    0.00     613     48.7
  57   14:20   50.3    31    6.5   284     15.0   882.2    0.00     172     48.9
  57   14:30   50.5    31    5.9   338     13.2   882.0    0.00     444     49.1
  57   14:40   51.4    30    7.8   350     12.9   881.8    0.00     502     49.4
  57   14:50   51.5    30    5.1   345     10.2   881.6    0.00     502     49.6
  57   15:00   51.4    29    5.5   350     12.9   881.5    0.00     339     49.9
  57   15:10   51.3    29    3.4   358      7.9   881.4    0.00     308     50.1
  57   15:20   51.7    29    3.0   330      6.4   881.4    0.00     428     50.3
  57   15:30   52.7    28    5.6   289     12.1   881.4    0.00     386     50.5
  57   15:40   51.9    28    6.8   341     13.8   881.2    0.00     363     50.6
  57   15:50   51.2    29    7.7    11     17.1   881.2    0.00     337     50.8
  57   16:00   51.2    29    6.1    15      9.8   881.2    0.00     248     50.9
  57   16:10   51.3    29    4.5    29      8.6   881.2    0.00     195     51.0
  57   16:20   50.9    29    6.1    15      9.8   881.2    0.00     144     51.1
  57   16:30   50.7    30    5.8    22      9.5   881.2    0.00     114     51.1
  57   16:40   50.6    30    5.2    19      6.7   881.2    0.00      82     51.2
  57   16:50   50.6    30    7.2   355     11.2   881.2    0.00      69     51.2
  57   17:00   50.5    30    6.4   350      8.9   881.0    0.00      51     51.2
  57   17:10   50.2    30    7.2     1      9.7   881.0    0.00      39     51.2
  57   17:20   50.0    31    6.7   353      9.1   880.9    0.00      27     51.2
  57   17:30   49.8    31    6.1   358      7.7   880.9    0.00      20     51.1
  57   17:40   49.5    32    4.0     2      6.6   880.9    0.00      11     51.1
  57   17:50   48.9    34    2.6    12      3.1   880.8    0.00       3     51.0
  57   18:00   48.3    36    2.9     4      3.5   880.7    0.00       1     50.8
  57   18:10   47.8    37    2.9    15      3.5   880.7    0.00       0     50.7
  57   18:20   47.2    38    3.7    36      4.6   880.7    0.00       0     50.6
  57   18:30   46.6    39    3.8    37      4.7   880.7    0.00       0     50.5
  57   18:40   46.1    40    1.8    51      3.3   880.6    0.00       0     50.4
  57   18:50   46.0    40    2.3   104      3.2   880.6    0.00       0     50.2
  57   19:00   45.6    42    3.0   127      3.4   880.5    0.00       0     50.1
  57   19:10   45.1    43    3.4   125      3.8   880.4    0.00       0     49.9
  57   19:20   44.8    43    3.8   122      4.1   880.2    0.00       0     49.8
  57   19:30   44.1    44    4.1   106      4.5   880.0    0.00       0     49.7
  57   19:40   43.2    46    4.4   102      4.8   879.8    0.00       0     49.5
  57   19:50   42.5    48    4.6   101      5.0   879.8    0.00       0     49.4
  57   20:00   41.6    50    4.5    93      5.3   879.9    0.00       0     49.2
  57   20:10   41.3    50    3.9   108      4.5   879.9    0.00       0     49.1
  57   20:20   40.8    50    4.2   118      4.7   879.7    0.00       0     48.9
  57   20:30   40.5    50    3.4   127      4.0   879.5    0.00       0     48.8
  57   20:40   40.7    50    2.8   140      3.3   879.5    0.00       0     48.6
  57   20:50   41.3    49    2.4   144      3.0   879.5    0.00       0     48.4
  57   21:00   41.0    48    3.2   310      5.0   879.5    0.00       0     48.3
  57   21:10   41.0    47    4.5    12      5.5   879.4    0.00       0     48.1
  57   21:20   39.9    48    3.5    21      4.6   879.4    0.00       0     48.0
  57   21:30   39.3    49    3.1    34      3.4   879.3    0.00       0     47.8
  57   21:40   39.0    50    4.0    36      5.2   879.3    0.00       0     47.7
  57   21:50   39.3    48    4.5    39      5.5   879.2    0.00       0     47.6
  57   22:00   39.2    48    3.4    39      5.0   879.1    0.00       0     47.5
  57   22:10   39.1    49    2.6    47      3.2   878.9    0.00       0     47.4
  57   22:20   38.8    50    3.7    45      4.9   878.8    0.00       0     47.2
  57   22:30   38.7    50    3.9    49      5.3   878.6    0.00       0     47.1
  57   22:40   38.6    50    3.0    53      4.2   878.5    0.00       0     47.0
  57   22:50   38.3    51    4.0    41      4.7   878.4    0.00       0     46.9
  57   23:00   38.1    51    3.7    22      4.8   878.3    0.00       0     46.8
  57   23:10   37.8    51    5.3    20      6.6   878.2    0.00       0     46.7
  57   23:20   37.7    51    7.3    31      9.0   878.1    0.00       0     46.6
  57   23:30   38.0    50    7.3    37      8.8   877.9    0.00       0     46.5
  57   23:40   38.9    49    7.6    38      9.0   877.9    0.00       0     46.4
  57   23:50   39.8    47    8.0    36     10.2   877.8    0.00       0     46.3
  58    0:00   40.4    46    8.2    30     10.9   877.8    0.00       0     46.3
  58    0:10   41.1    45    7.6    28      9.2   877.8    0.00       0     46.2
  58    0:20   41.8    45    7.0    22      9.0   877.9    0.00       0     46.1
  58    0:30   42.8    44    4.9    24      7.8   877.9    0.00       0     46.0
  58    0:40   43.2    43    1.7    16      2.9   877.9    0.00       0     45.9
  58    0:50   44.0    44    2.4    48      4.9   877.8    0.00       0     45.9
  58    1:00   43.9    45    3.2    25      6.9   877.8    0.00       0     45.8
  58    1:10   43.4    48    2.8    24      6.2   877.8    0.00       0     45.8
  58    1:20   43.8    50    3.2     7      5.3   877.7    0.00       0     45.7
  58    1:30   43.6    50    2.3   358      3.6   877.7    0.00       0     45.7
  58    1:40   44.0    50    2.2   327      2.9   877.6    0.00       0     45.6
  58    1:50   43.8    49    3.0   286      3.7   877.6    0.00       0     45.6
  58    2:00   42.8    51    4.5   297      5.3   877.6    0.00       0     45.5
  58    2:10   42.6    53    6.6   334     11.2   877.7    0.00       0     45.5
  58    2:20   42.4    58    7.1    44     15.6   877.6    0.00       0     45.4
  58    2:30   41.4    62    4.4    41      9.2   877.7    0.00       0     45.4
  58    2:40   40.9    65    6.4    84      8.4   877.5    0.00       0     45.3
  58    2:50   41.0    64    8.1    86     10.7   877.1    0.00       0     45.3
  58    3:00   40.8    66    9.3    72     12.0   876.9    0.00       0     45.2
  58    3:10   40.2    68    9.8    38     12.6   876.8    0.00       0     45.2
  58    3:20   39.7    70    9.1    40     12.7   876.7    0.00       0     45.1
  58    3:30   39.5    70    7.5    43      9.9   876.6    0.00       0     45.1
  58    3:40   39.3    71    6.3    55      7.6   876.5    0.00       0     45.0
  58    3:50   39.3    71    7.2    68      8.6   876.3    0.00       0     45.0
  58    4:00   39.1    71    8.2    69     11.0   876.0    0.00       0     45.0
  58    4:10   38.9    72    9.7    57     11.7   875.9    0.00       0     44.9
  58    4:20   38.8    73   10.1    44     12.3   876.0    0.00       0     44.9
  58    4:30   38.4    74    8.9    59     10.8   875.8    0.00       0     44.8
  58    4:40   38.1    74    7.3    56      9.6   875.7    0.00       0     44.8
  58    4:50   38.0    74    6.0    46      7.2   875.8    0.00       0     44.7
  58    5:00   37.9    74    5.3    30      6.5   875.8    0.00       0     44.6
  58    5:10   37.6    74    5.3    26      6.0   875.7    0.00       0     44.6
  58    5:20   37.6    75    6.1    29      8.4   875.6    0.00       0     44.5

Return to Carson Sink graphs page.


Western Regional Climate Center,wrcc@dri.edu